Time;durP1;ratioP1;P1;durP2;ratioP2;P2;SDS_P1;SDS_P2;PMS_P1;PMS_P2;Temp;Humidity;BMP_temperature;BMP_pressure;BME280_temperature;BME280_humidity;BME280_pressure;Samples;Min_cycle;Max_cycle;Signal;HPM_P1;HPM_P2
2022/05/11 00:01:37;;;;;;;;;;;16.40;99.90;;;;;;5087318;28;19927;-70
2022/05/11 00:04:05;;;;;;;;;;;16.40;99.90;;;;;;5087917;28;19946;-70
2022/05/11 00:06:32;;;;;;;;;;;16.40;99.90;;;;;;5087154;28;20015;-71
2022/05/11 00:09:01;;;;;;;;;;;16.40;99.90;;;;;;5088201;28;19935;-71
2022/05/11 00:11:28;;;;;;;;;;;16.30;99.90;;;;;;5088146;28;20036;-72
2022/05/11 00:13:59;;;;;;;;;;;16.30;99.90;;;;;;5087936;28;19923;-71
2022/05/11 00:16:26;;;;;;;;;;;16.30;99.90;;;;;;5068200;28;19927;-71
2022/05/11 00:18:53;;;;;;;;;;;16.30;99.90;;;;;;5087849;28;19920;-71
2022/05/11 00:21:20;;;;;;;;;;;16.50;99.90;;;;;;5087109;28;19947;-71
2022/05/11 00:23:47;;;;;;;;;;;16.20;99.90;;;;;;5069877;28;20321;-71
2022/05/11 00:26:15;;;;;;;;;;;16.20;99.90;;;;;;5085714;28;19920;-71
2022/05/11 00:28:42;;;;;;;;;;;16.20;99.90;;;;;;5090456;28;19986;-71
2022/05/11 00:31:09;;;;;;;;;;;16.10;99.90;;;;;;5087517;28;19920;-69
2022/05/11 00:33:35;;;;;;;;;;;16.10;99.90;;;;;;5087544;28;20011;-71
2022/05/11 00:36:02;;;;;;;;;;;16.10;99.90;;;;;;5087088;28;20034;-71
2022/05/11 00:38:29;;;;;;;;;;;16.10;99.90;;;;;;5088066;28;20207;-70
2022/05/11 00:40:57;;;;;;;;;;;16.10;99.90;;;;;;5087006;28;20377;-70
2022/05/11 00:43:30;;;;;;;;;;;16.10;99.90;;;;;;5087997;28;19924;-70
2022/05/11 00:46:00;;;;;;;;;;;16.00;99.90;;;;;;5086212;28;20408;-70
2022/05/11 00:51:13;;;;;;;;;;;16.00;99.90;;;;;;5089167;28;20029;-70
2022/05/11 00:53:41;;;;;;;;;;;16.00;99.90;;;;;;5090188;28;20042;-70
2022/05/11 00:56:08;;;;;;;;;;;16.00;99.90;;;;;;5086492;28;20234;-72
2022/05/11 00:58:37;;;;;;;;;;;16.10;99.90;;;;;;5088061;28;19928;-72
2022/05/11 01:01:04;;;;;;;;;;;16.10;99.90;;;;;;5088722;28;19920;-72
2022/05/11 01:03:33;;;;;;;;;;;16.10;99.90;;;;;;5069184;28;19943;-72
2022/05/11 01:06:00;;;;;;;;;;;16.10;99.90;;;;;;5066483;28;19931;-72
2022/05/11 01:08:28;;;;;;;;;;;16.10;99.90;;;;;;5087639;28;19928;-72
2022/05/11 01:10:55;;;;;;;;;;;16.10;99.90;;;;;;5089289;28;19927;-73
2022/05/11 01:13:22;;;;;;;;;;;16.20;99.90;;;;;;5089606;28;19924;-73
2022/05/11 01:15:51;;;;;;;;;;;16.20;99.90;;;;;;5071057;28;19931;-73
2022/05/11 01:18:19;;;;;;;;;;;17.90;99.90;;;;;;5085913;28;19930;-73
2022/05/11 01:20:47;;;;;;;;;;;16.20;99.90;;;;;;5088805;28;19928;-72
2022/05/11 01:23:16;;;;;;;;;;;17.70;99.90;;;;;;5088725;28;19923;-72
2022/05/11 01:25:44;;;;;;;;;;;16.20;99.90;;;;;;5085461;28;19928;-71
2022/05/11 01:28:12;;;;;;;;;;;16.20;99.90;;;;;;5068550;28;19930;-71
2022/05/11 01:30:40;;;;;;;;;;;16.20;99.90;;;;;;5084556;28;19924;-70
2022/05/11 01:33:06;;;;;;;;;;;17.10;99.90;;;;;;5085633;28;19923;-71
2022/05/11 01:35:41;;;;;;;;;;;16.30;99.90;;;;;;5085888;28;20026;-73
2022/05/11 01:38:15;;;;;;;;;;;16.30;99.90;;;;;;5074697;28;19963;-72
2022/05/11 01:40:43;;;;;;;;;;;16.30;99.90;;;;;;5083073;28;20011;-73
2022/05/11 01:43:14;;;;;;;;;;;16.40;99.90;;;;;;5086397;28;19923;-73
2022/05/11 01:45:41;;;;;;;;;;;16.40;99.90;;;;;;5082989;28;20013;-72
2022/05/11 01:48:08;;;;;;;;;;;16.40;99.90;;;;;;5081142;28;19927;-73
2022/05/11 01:50:35;;;;;;;;;;;16.20;99.90;;;;;;5070803;28;19923;-72
2022/05/11 01:53:02;;;;;;;;;;;16.40;99.90;;;;;;5085941;28;19932;-72
2022/05/11 01:55:29;;;;;;;;;;;16.40;99.90;;;;;;5085315;28;19993;-72
2022/05/11 01:57:57;;;;;;;;;;;16.40;99.90;;;;;;5086220;28;20399;-73
2022/05/11 02:00:24;;;;;;;;;;;16.30;99.90;;;;;;5086434;28;20419;-72
2022/05/11 02:02:51;;;;;;;;;;;16.40;99.90;;;;;;5086379;28;19920;-72
2022/05/11 02:08:03;;;;;;;;;;;16.30;99.90;;;;;;5071025;28;20024;-72
2022/05/11 02:10:30;;;;;;;;;;;16.30;99.90;;;;;;5085961;28;20420;-73
2022/05/11 02:12:58;;;;;;;;;;;16.20;99.90;;;;;;5084201;28;19920;-71
2022/05/11 02:15:26;;;;;;;;;;;16.20;99.90;;;;;;5084231;28;20371;-71
2022/05/11 02:17:53;;;;;;;;;;;16.20;99.90;;;;;;5067823;28;19958;-71
2022/05/11 02:20:20;;;;;;;;;;;16.20;99.90;;;;;;5085844;28;19924;-71
2022/05/11 02:22:47;;;;;;;;;;;16.10;99.90;;;;;;5085444;28;20331;-71
2022/05/11 02:25:15;;;;;;;;;;;16.10;99.90;;;;;;5087194;28;19947;-70
2022/05/11 02:27:43;;;;;;;;;;;16.00;99.90;;;;;;5085137;28;20038;-71
2022/05/11 02:30:13;;;;;;;;;;;16.00;99.90;;;;;;5068512;28;19923;-72
2022/05/11 02:32:40;;;;;;;;;;;16.00;99.90;;;;;;5085271;28;19930;-71
2022/05/11 02:35:13;;;;;;;;;;;16.00;99.90;;;;;;5085023;28;19927;-71
2022/05/11 02:37:40;;;;;;;;;;;15.90;99.90;;;;;;5086846;28;19930;-71
2022/05/11 02:40:08;;;;;;;;;;;15.80;99.90;;;;;;5088586;28;19923;-70
2022/05/11 02:42:34;;;;;;;;;;;15.70;99.90;;;;;;5088983;28;19924;-70
2022/05/11 02:45:01;;;;;;;;;;;15.70;99.90;;;;;;5089485;28;19919;-70
2022/05/11 02:47:29;;;;;;;;;;;15.80;99.90;;;;;;5092620;28;20408;-71
2022/05/11 02:49:56;;;;;;;;;;;15.80;99.90;;;;;;5089260;28;19920;-71
2022/05/11 02:52:23;;;;;;;;;;;15.80;99.90;;;;;;5089018;28;20389;-70
2022/05/11 02:54:50;;;;;;;;;;;15.80;99.90;;;;;;5071276;28;19942;-71
2022/05/11 02:57:17;;;;;;;;;;;15.80;99.90;;;;;;5087899;28;19924;-70
2022/05/11 02:59:44;;;;;;;;;;;15.70;99.90;;;;;;5089576;28;20088;-71
2022/05/11 03:02:11;;;;;;;;;;;15.70;99.90;;;;;;5091985;28;19985;-70
2022/05/11 03:04:39;;;;;;;;;;;15.70;99.90;;;;;;5083361;28;20078;-72
2022/05/11 03:07:06;;;;;;;;;;;15.70;99.90;;;;;;5086210;28;19920;-72
2022/05/11 03:09:33;;;;;;;;;;;15.70;99.90;;;;;;5088680;28;19924;-72
2022/05/11 03:12:00;;;;;;;;;;;15.70;99.90;;;;;;5088971;28;19924;-71
2022/05/11 03:14:26;;;;;;;;;;;15.70;99.90;;;;;;5082244;28;20439;-71
2022/05/11 03:16:53;;;;;;;;;;;15.70;99.90;;;;;;5088039;28;19924;-71
2022/05/11 03:19:20;;;;;;;;;;;15.70;99.90;;;;;;5071592;28;20300;-72
2022/05/11 03:21:48;;;;;;;;;;;15.70;99.90;;;;;;5088101;28;19954;-71
2022/05/11 03:24:15;;;;;;;;;;;15.70;99.90;;;;;;5070564;28;19955;-71
2022/05/11 03:26:42;;;;;;;;;;;15.70;99.90;;;;;;5087141;28;19928;-71
2022/05/11 03:29:08;;;;;;;;;;;15.70;99.90;;;;;;5070093;28;20411;-71
2022/05/11 03:31:36;;;;;;;;;;;15.70;99.90;;;;;;5087834;28;19924;-72
2022/05/11 03:37:03;;;;;;;;;;;15.70;99.90;;;;;;5044002;28;20441;-70
2022/05/11 03:39:30;;;;;;;;;;;15.80;99.90;;;;;;5045769;28;19924;-71
2022/05/11 03:41:57;;;;;;;;;;;15.80;99.90;;;;;;5063404;28;20380;-71
2022/05/11 03:44:23;;;;;;;;;;;18.00;99.90;;;;;;5091209;28;20442;-72
2022/05/11 03:46:50;;;;;;;;;;;15.80;99.90;;;;;;5093302;22;19931;-80
2022/05/11 03:49:18;;;;;;;;;;;15.90;99.90;;;;;;5055780;28;19921;-77
2022/05/11 03:51:45;;;;;;;;;;;15.90;99.90;;;;;;5055464;28;19920;-76
2022/05/11 03:54:13;;;;;;;;;;;15.90;99.90;;;;;;5055832;28;19924;-77
2022/05/11 03:56:40;;;;;;;;;;;15.90;99.90;;;;;;5061428;28;20031;-76
2022/05/11 03:59:07;;;;;;;;;;;15.90;99.90;;;;;;5091192;28;19920;-80
2022/05/11 04:01:34;;;;;;;;;;;15.90;99.90;;;;;;5067323;28;19934;-77
2022/05/11 04:04:02;;;;;;;;;;;15.90;99.90;;;;;;5052323;28;20388;-77
2022/05/11 04:06:29;;;;;;;;;;;15.90;99.90;;;;;;5063798;28;19920;-77
2022/05/11 04:08:56;;;;;;;;;;;15.90;99.90;;;;;;5041256;28;19928;-78
2022/05/11 04:11:24;;;;;;;;;;;16.50;99.90;;;;;;5050282;28;19978;-77
2022/05/11 04:13:51;;;;;;;;;;;15.90;99.90;;;;;;5049344;28;19927;-76
2022/05/11 04:16:19;;;;;;;;;;;16.00;99.90;;;;;;5049757;28;19955;-76
2022/05/11 04:18:46;;;;;;;;;;;16.00;99.90;;;;;;5049237;28;19931;-76
2022/05/11 04:21:13;;;;;;;;;;;16.00;99.90;;;;;;5048119;28;19924;-75
2022/05/11 04:23:41;;;;;;;;;;;16.10;99.90;;;;;;5048697;28;19920;-78
2022/05/11 04:26:08;;;;;;;;;;;16.10;99.90;;;;;;5066345;28;20003;-78
2022/05/11 04:28:38;;;;;;;;;;;16.10;99.90;;;;;;5051729;28;19951;-78
2022/05/11 04:31:06;;;;;;;;;;;15.10;99.90;;;;;;5055698;28;19913;-80
2022/05/11 04:33:33;;;;;;;;;;;16.10;99.90;;;;;;5062261;28;20021;-79
2022/05/11 04:36:00;;;;;;;;;;;16.10;99.90;;;;;;5076733;22;19943;-67
2022/05/11 04:38:27;;;;;;;;;;;16.10;99.90;;;;;;5060064;28;20419;-67
2022/05/11 04:40:54;;;;;;;;;;;16.10;99.90;;;;;;5066750;28;19925;-67
2022/05/11 04:43:20;;;;;;;;;;;16.20;99.90;;;;;;5062374;28;19925;-67
2022/05/11 04:45:48;;;;;;;;;;;16.30;99.90;;;;;;5059874;28;19935;-68
2022/05/11 04:48:16;;;;;;;;;;;16.40;99.90;;;;;;5038842;28;19925;-67
2022/05/11 04:50:44;;;;;;;;;;;16.50;99.90;;;;;;5050587;28;19935;-69
2022/05/11 04:53:12;;;;;;;;;;;17.00;99.90;;;;;;5046592;28;19966;-67
2022/05/11 04:55:39;;;;;;;;;;;16.70;99.90;;;;;;5044853;28;19951;-67
2022/05/11 04:58:06;;;;;;;;;;;16.90;99.90;;;;;;5046006;28;19940;-67
2022/05/11 05:00:33;;;;;;;;;;;17.00;99.90;;;;;;5047067;28;20304;-68
2022/05/11 05:03:04;;;;;;;;;;;17.40;99.90;;;;;;5061553;28;20176;-68
2022/05/11 05:05:31;;;;;;;;;;;17.40;99.90;;;;;;5045180;28;19924;-68
2022/05/11 05:07:58;;;;;;;;;;;17.60;99.90;;;;;;5055333;28;19924;-68
2022/05/11 05:10:25;;;;;;;;;;;17.80;99.90;;;;;;5046599;28;19925;-68
2022/05/11 05:12:51;;;;;;;;;;;18.00;99.90;;;;;;5048064;28;20027;-68
2022/05/11 05:15:18;;;;;;;;;;;18.20;99.90;;;;;;5044988;28;19929;-69
2022/05/11 05:17:45;;;;;;;;;;;18.40;99.90;;;;;;5045289;28;19998;-68
2022/05/11 05:20:14;;;;;;;;;;;18.60;99.90;;;;;;5046488;28;20340;-69
2022/05/11 05:22:41;;;;;;;;;;;18.70;99.90;;;;;;5055154;28;19924;-68
2022/05/11 05:25:08;;;;;;;;;;;21.00;99.90;;;;;;5041713;28;19956;-69
2022/05/11 05:27:35;;;;;;;;;;;19.20;99.90;;;;;;5050720;28;19958;-67
2022/05/11 05:32:46;;;;;;;;;;;19.70;99.90;;;;;;5041891;28;19927;-68
2022/05/11 05:35:16;;;;;;;;;;;20.10;99.90;;;;;;5044023;28;20334;-67
2022/05/11 05:37:43;;;;;;;;;;;20.20;99.90;;;;;;5047181;28;19935;-67
2022/05/11 05:40:10;;;;;;;;;;;20.40;99.90;;;;;;5043507;28;20053;-68
2022/05/11 05:42:37;;;;;;;;;;;20.90;99.90;;;;;;5045728;28;20289;-67
2022/05/11 05:45:04;;;;;;;;;;;21.60;99.90;;;;;;5043312;28;20010;-67
2022/05/11 05:47:31;;;;;;;;;;;22.60;99.90;;;;;;5046512;28;20012;-67
2022/05/11 05:49:58;;;;;;;;;;;22.40;99.90;;;;;;5039629;28;19935;-67
2022/05/11 05:52:26;;;;;;;;;;;25.30;99.90;;;;;;5041246;28;19924;-67
2022/05/11 05:54:56;;;;;;;;;;;26.70;99.90;;;;;;5039824;28;19978;-68
2022/05/11 05:57:23;;;;;;;;;;;27.90;99.90;;;;;;5042739;28;20331;-68
2022/05/11 05:59:49;;;;;;;;;;;28.80;99.90;;;;;;5041513;28;19943;-68
2022/05/11 06:02:16;;;;;;;;;;;29.80;99.90;;;;;;5045058;28;19936;-69
2022/05/11 06:04:45;;;;;;;23.08;8.65;;;30.70;97.60;;;;;;5043650;28;20901;-68
2022/05/11 06:07:12;;;;;;;;;;;31.60;96.30;;;;;;5045599;28;20284;-69
2022/05/11 06:09:40;;;;;;;;;;;32.40;94.20;;;;;;5050178;28;19955;-70
2022/05/11 06:12:08;;;;;;;;;;;33.00;93.10;;;;;;5054114;28;19920;-69
2022/05/11 06:14:35;;;;;;;;;;;34.20;89.40;;;;;;5047743;28;20025;-70
2022/05/11 06:17:02;;;;;;;23.15;9.10;;;34.20;89.80;;;;;;5049167;28;19932;-69
2022/05/11 06:19:30;;;;;;;21.45;8.85;;;34.60;85.20;;;;;;5054073;28;20229;-70
2022/05/11 06:21:57;;;;;;;24.33;9.10;;;35.20;85.40;;;;;;5048726;28;20295;-70
2022/05/11 06:24:24;;;;;;;24.65;8.80;;;34.90;79.50;;;;;;5046673;28;20216;-70
2022/05/11 06:26:53;;;;;;;27.95;10.23;;;34.90;79.10;;;;;;5047859;28;20971;-70
2022/05/11 06:29:21;;;;;;;29.92;10.10;;;35.10;77.90;;;;;;5048248;28;20256;-69
2022/05/11 06:31:48;;;;;;;33.72;10.02;;;33.50;76.10;;;;;;5049613;28;20653;-69
2022/05/11 06:34:15;;;;;;;33.60;10.52;;;35.60;76.10;;;;;;5050067;28;20282;-72
2022/05/11 06:36:44;;;;;;;30.45;8.68;;;36.00;74.80;;;;;;5050705;28;20286;-72
2022/05/11 06:39:11;;;;;;;25.65;9.07;;;36.30;73.20;;;;;;5053639;28;20235;-71
2022/05/11 06:41:40;;;;;;;33.70;10.03;;;36.20;70.30;;;;;;5052870;28;20698;-71
2022/05/11 06:44:09;;;;;;;22.85;9.43;;;36.20;71.10;;;;;;5046295;28;20788;-72
2022/05/11 06:46:36;;;;;;;24.25;9.23;;;36.50;71.40;;;;;;5046727;28;20540;-71
2022/05/11 06:49:03;;;;;;;32.03;10.77;;;36.90;70.80;;;;;;5045083;28;20217;-72
2022/05/11 06:51:30;;;;;;;;;;;38.50;70.10;;;;;;5048592;28;20213;-71
2022/05/11 06:59:27;;;;;;;;;;;37.70;65.50;;;;;;5049931;28;19986;-72
2022/05/11 07:01:55;;;;;;;;;;;37.90;67.00;;;;;;5042559;28;19927;-72
2022/05/11 07:04:23;;;;;;;;;;;38.00;64.40;;;;;;5043257;28;19925;-72
2022/05/11 07:06:51;;;;;;;;;;;38.20;63.90;;;;;;5055818;28;19972;-71
2022/05/11 07:09:18;;;;;;;;;;;38.40;62.50;;;;;;5048984;28;20023;-72
2022/05/11 07:14:31;;;;;;;;;;;38.30;57.90;;;;;;5049037;28;19967;-71
2022/05/11 07:16:57;;;;;;;;;;;38.00;57.70;;;;;;5048225;28;19925;-71
2022/05/11 07:19:25;;;;;;;;;;;37.60;57.80;;;;;;5047144;28;19932;-72
2022/05/11 07:21:52;;;;;;;;;;;36.70;58.10;;;;;;5052485;28;19925;-71
2022/05/11 07:24:19;;;;;;;;;;;36.70;57.90;;;;;;5049096;28;19928;-71
2022/05/11 07:26:46;;;;;;;;;;;36.60;58.60;;;;;;5063057;28;20036;-72
2022/05/11 07:29:14;;;;;;;;;;;36.60;59.00;;;;;;5063833;28;19927;-72
2022/05/11 07:31:43;;;;;;;;;;;37.10;58.60;;;;;;5067751;28;19931;-71
2022/05/11 07:34:10;;;;;;;;;;;37.10;58.90;;;;;;5061116;28;20266;-73
2022/05/11 07:36:36;;;;;;;;;;;37.40;58.20;;;;;;5055076;28;20393;-72
2022/05/11 07:39:03;;;;;;;;;;;37.80;58.40;;;;;;5046157;28;19927;-71
2022/05/11 07:41:30;;;;;;;;;;;38.00;57.70;;;;;;5047452;28;20277;-72
2022/05/11 07:43:57;;;;;;;;;;;38.20;57.40;;;;;;5068396;28;19931;-70
2022/05/11 07:46:25;;;;;;;;;;;39.30;57.90;;;;;;5043859;28;20394;-71
2022/05/11 07:48:53;;;;;;;;;;;38.60;57.20;;;;;;5047913;28;20020;-72
2022/05/11 07:51:20;;;;;;;;;;;38.70;56.70;;;;;;5040522;28;19925;-73
2022/05/11 07:53:47;;;;;;;;;;;38.60;56.20;;;;;;5052961;28;19998;-71
2022/05/11 08:01:42;;;;;;;;;;;38.10;55.20;;;;;;5058941;28;19921;-72
2022/05/11 08:04:10;;;;;;;;;;;38.20;55.50;;;;;;5046769;28;19924;-72
2022/05/11 08:06:37;;;;;;;;;;;38.00;55.30;;;;;;5047622;28;20180;-72
2022/05/11 08:09:04;;;;;;;;;;;37.90;55.10;;;;;;5048107;28;20437;-71
2022/05/11 08:11:31;;;;;;;;;;;37.70;55.10;;;;;;5048624;28;19925;-72
2022/05/11 08:13:57;;;;;;;;;;;37.50;55.20;;;;;;5045917;28;19928;-72
2022/05/11 08:16:26;;;;;;;;;;;37.50;55.40;;;;;;5045694;28;20393;-73
2022/05/11 08:18:52;;;;;;;;;;;37.10;55.20;;;;;;5050035;28;19951;-72
2022/05/11 08:21:20;;;;;;;;;;;36.70;55.80;;;;;;5045486;28;19925;-72
2022/05/11 08:23:49;;;;;;;;;;;36.70;56.20;;;;;;5050375;28;19931;-72
2022/05/11 08:26:16;;;;;;;;;;;36.60;56.20;;;;;;5046100;28;19928;-73
2022/05/11 08:28:43;;;;;;;;;;;36.40;56.00;;;;;;5049969;28;20026;-73
2022/05/11 08:33:54;;;;;;;;;;;35.90;56.20;;;;;;5045166;28;20152;-73
2022/05/11 08:36:24;;;;;;;;;;;35.70;56.70;;;;;;5047809;28;20062;-71
2022/05/11 08:38:51;;;;;;;;;;;35.50;56.90;;;;;;5044313;28;19921;-71
2022/05/11 08:41:29;;;;;;;;;;;35.30;57.30;;;;;;5045291;28;19931;-70
2022/05/11 08:44:00;;;;;;;;;;;35.20;57.50;;;;;;5053684;28;19925;-70
2022/05/11 08:46:35;;;;;;;;;;;35.10;57.70;;;;;;5043357;28;19924;-70
2022/05/11 08:49:04;;;;;;;;;;;35.10;58.20;;;;;;5065603;28;20412;-71
2022/05/11 08:51:36;;;;;;;;;;;35.10;58.20;;;;;;5064952;28;19927;-70
2022/05/11 08:54:13;;;;;;;;;;;35.00;58.40;;;;;;5066669;28;19924;-70
2022/05/11 08:56:40;;;;;;;;;;;34.80;57.90;;;;;;5067921;28;19934;-70
2022/05/11 08:59:08;;;;;;;;;;;34.60;58.40;;;;;;5068231;28;19931;-70
2022/05/11 09:01:38;;;;;;;;;;;34.50;58.50;;;;;;5046422;28;19935;-70
2022/05/11 09:04:07;;;;;;;;;;;34.50;58.10;;;;;;5046060;28;19975;-70
2022/05/11 09:06:37;;;;;;;;;;;34.50;58.50;;;;;;5045199;28;20301;-71
2022/05/11 09:09:04;;;;;;;;;;;34.30;58.70;;;;;;5046130;28;20394;-70
2022/05/11 09:11:33;;;;;;;;;;;33.90;58.60;;;;;;5043209;28;19951;-70
2022/05/11 09:14:01;;;;;;;;;;;33.60;58.80;;;;;;5045146;28;19925;-69
2022/05/11 09:16:36;;;;;;;;;;;33.40;59.90;;;;;;5047650;28;19924;-70
2022/05/11 09:19:09;;;;;;;;;;;33.30;60.00;;;;;;5045280;28;19939;-70
2022/05/11 09:21:39;;;;;;;;;;;33.00;60.40;;;;;;5060416;28;19929;-70
2022/05/11 09:24:09;;;;;;;;;;;32.90;60.60;;;;;;5046119;28;20381;-71
2022/05/11 09:26:37;;;;;;;;;;;32.80;61.30;;;;;;5044413;28;19924;-71
2022/05/11 09:29:16;;;;;;;;;;;32.70;61.20;;;;;;5055285;28;20373;-71
2022/05/11 09:31:43;;;;;;;;;;;32.30;61.30;;;;;;5052070;28;19928;-71
2022/05/11 09:34:13;;;;;;;;;;;32.40;61.20;;;;;;5052005;28;19929;-71
2022/05/11 09:36:42;;;;;;;;;;;32.10;61.30;;;;;;5038829;28;20166;-73
2022/05/11 09:39:13;;;;;;;;;;;31.80;62.00;;;;;;5040924;28;19925;-73
2022/05/11 09:41:40;;;;;;;;;;;;;;;;;;5043861;28;19978;-74
2022/05/11 09:44:17;;;;;;;;;;;31.50;61.10;;;;;;5051093;28;19932;-73
2022/05/11 09:46:44;;;;;;;;;;;31.10;62.60;;;;;;5040532;28;19924;-73
2022/05/11 09:49:13;;;;;;;;;;;30.90;63.30;;;;;;5048485;28;19952;-72
2022/05/11 09:51:40;;;;;;;;;;;;;;;;;;5049232;28;20407;-72
2022/05/11 09:54:27;;;;;;;;;;;29.60;62.50;;;;;;5050239;28;19924;-71
2022/05/11 09:56:58;;;;;;;;;;;28.10;63.20;;;;;;5044793;28;20373;-70
2022/05/11 09:59:28;;;;;;;;;;;28.10;65.00;;;;;;5065963;28;19931;-70
2022/05/11 10:01:59;;;;;;;;;;;27.00;65.10;;;;;;5057034;28;19947;-70
2022/05/11 10:04:31;;;;;;;;;;;27.10;66.80;;;;;;5046296;28;19921;-70
2022/05/11 10:06:58;;;;;;;;;;;26.70;67.10;;;;;;5048599;28;19931;-70
2022/05/11 10:09:27;;;;;;;;;;;26.50;68.80;;;;;;5057070;28;19932;-70
2022/05/11 10:11:54;;;;;;;;;;;26.20;68.30;;;;;;5044961;28;19924;-70
2022/05/11 10:22:43;;;;;;;;;;;25.90;71.20;;;;;;5047820;28;19932;-69
2022/05/11 10:25:14;;;;;;;;;;;26.00;71.60;;;;;;5049347;28;20483;-69
2022/05/11 10:27:43;;;;;;;;;;;26.00;71.60;;;;;;5057695;28;19933;-69
2022/05/11 10:30:17;;;;;;;;;;;26.00;71.60;;;;;;5047304;28;20380;-69
2022/05/11 10:32:57;;;;;;;;;;;25.90;70.60;;;;;;5069955;22;20418;-78
2022/05/11 10:35:25;;;;;;;;;;;25.90;71.30;;;;;;5080634;28;19999;-78
2022/05/11 10:38:00;;;;;;;;;;;26.00;72.40;;;;;;5067514;28;20097;-79
2022/05/11 10:40:34;;;;;;;;;;;26.00;72.40;;;;;;5067811;28;20344;-79
2022/05/11 10:43:10;;;;;;;;;;;26.00;71.70;;;;;;5075252;28;19924;-76
2022/05/11 10:45:43;;;;;;;;;;;26.00;72.70;;;;;;5077882;28;19920;-77
2022/05/11 10:48:17;;;;;;;;;;;26.00;72.70;;;;;;5077410;28;19962;-79
2022/05/11 10:50:50;;;;;;;;;;;26.00;72.20;;;;;;5072877;28;20030;-77
2022/05/11 10:53:20;;;;;;;;;;;26.00;72.90;;;;;;5069961;28;20033;-77
2022/05/11 10:55:56;;;;;;;;;;;26.10;73.00;;;;;;5069791;28;19920;-77
2022/05/11 10:58:40;;;;;;;;;;;26.20;73.30;;;;;;5071991;28;19960;-77
2022/05/11 11:01:11;;;;;;;;;;;26.30;72.50;;;;;;5070856;28;19955;-79
2022/05/11 11:03:58;;;;;;;;;;;26.20;71.40;;;;;;5076271;28;19978;-81
2022/05/11 11:09:29;;;;;;;;;;;26.40;72.90;;;;;;5077658;28;20433;-81
2022/05/11 11:12:02;;;;;;;;;;;26.50;72.70;;;;;;5079068;28;19924;-79
2022/05/11 11:14:31;;;;;;;;;;;26.50;72.00;;;;;;5085718;28;20386;-79
2022/05/11 11:17:01;;;;;;;;;;;26.60;72.80;;;;;;5074016;28;19924;-79
2022/05/11 11:19:31;;;;;;;;;;;26.60;72.60;;;;;;5068531;28;19939;-79
2022/05/11 11:22:00;;;;;;;;;;;26.70;71.80;;;;;;5068820;28;19924;-79
2022/05/11 11:24:27;;;;;;;;;;;26.60;72.40;;;;;;5072135;28;19974;-80
2022/05/11 11:26:56;;;;;;;;;;;26.50;71.90;;;;;;5088216;28;19920;-82
2022/05/11 11:29:26;;;;;;;;;;;26.50;72.40;;;;;;5082065;28;19973;-80
2022/05/11 11:32:11;;;;;;;;;;;25.00;70.90;;;;;;5084089;28;20446;-80
2022/05/11 11:34:40;;;;;;;;;;;26.60;72.30;;;;;;5071084;28;19949;-80
2022/05/11 11:37:28;;;;;;;;;;;26.60;72.80;;;;;;5080429;28;19930;-79
2022/05/11 11:39:56;;;;;;;;;;;26.70;72.40;;;;;;5068382;28;19971;-79
2022/05/11 11:42:29;;;;;;;;;;;26.80;71.40;;;;;;5066490;28;19955;-81
2022/05/11 11:44:57;;;;;;;;;;;26.80;71.70;;;;;;5071178;28;20478;-80
2022/05/11 11:47:34;;;;;;;;;;;26.70;70.50;;;;;;5072333;28;19924;-81
2022/05/11 11:50:02;;;;;;;;;;;26.80;71.10;;;;;;5067203;28;19927;-82
2022/05/11 11:52:36;;;;;;;;;;;26.70;70.40;;;;;;5051913;28;19927;-81
2022/05/11 11:55:07;;;;;;;;;;;26.80;71.00;;;;;;5069845;28;20241;-79
2022/05/11 11:57:33;;;;;;;;;;;26.70;70.30;;;;;;5073000;28;19980;-81
2022/05/11 12:00:02;;;;;;;;;;;26.70;70.70;;;;;;5072715;28;19931;-80
2022/05/11 12:02:40;;;;;;;;;;;26.60;70.30;;;;;;5069817;28;19932;-79
2022/05/11 12:05:11;;;;;;;;;;;26.70;70.40;;;;;;5066621;28;20011;-83
2022/05/11 12:16:00;;;;;;;;;;;26.80;69.60;;;;;;5086600;28;19938;-80
2022/05/11 12:18:28;;;;;;;;;;;26.90;68.90;;;;;;5085630;28;19926;-85
2022/05/11 12:20:57;;;;;;;;;;;26.90;68.40;;;;;;5082747;28;19933;-81
2022/05/11 12:23:26;;;;;;;;;;;26.90;68.00;;;;;;5084169;28;20360;-81
2022/05/11 12:25:54;;;;;;;;;;;26.90;68.60;;;;;;5073958;28;20292;-81
2022/05/11 12:28:23;;;;;;;;;;;27.00;68.60;;;;;;5072810;28;19953;-80
2022/05/11 12:30:50;;;;;;;;;;;27.10;68.60;;;;;;5075691;28;19924;-80
2022/05/11 12:33:21;;;;;;;;;;;27.20;68.60;;;;;;5073872;28;20027;-81
2022/05/11 12:35:49;;;;;;;;;;;27.20;69.60;;;;;;5075729;28;19925;-80
2022/05/11 12:38:30;;;;;;;;;;;27.40;69.10;;;;;;5075110;28;20015;-80
2022/05/11 12:40:57;;;;;;;;;;;27.50;69.30;;;;;;5076936;28;20381;-80
2022/05/11 12:43:25;;;;;;;;;;;27.70;68.70;;;;;;5077345;28;20402;-80
2022/05/11 12:45:53;;;;;;;;;;;27.80;69.20;;;;;;5070445;28;20015;-79
2022/05/11 12:48:20;;;;;;;;;;;27.90;68.70;;;;;;5072022;28;19920;-80
2022/05/11 12:50:50;;;;;;;;;;;27.90;68.10;;;;;;5074713;28;19931;-80
2022/05/11 12:53:27;;;;;;;;;;;27.90;67.80;;;;;;5079851;28;19931;-80
2022/05/11 12:56:06;;;;;;;;;;;27.80;68.70;;;;;;5079872;28;19924;-80
2022/05/11 12:58:34;;;;;;;;;;;27.70;69.00;;;;;;5079300;28;19931;-80
2022/05/11 13:01:02;;;;;;;;;;;27.70;68.70;;;;;;5077920;28;19939;-80
2022/05/11 13:03:30;;;;;;;;;;;27.70;68.60;;;;;;5075142;28;19924;-79
2022/05/11 13:05:59;;;;;;;;;;;27.70;69.30;;;;;;5080786;28;19924;-80
2022/05/11 13:08:27;;;;;;;;;;;27.80;69.30;;;;;;5075321;28;19924;-82
2022/05/11 13:10:55;;;;;;;;;;;27.80;69.20;;;;;;5076485;28;20003;-81
2022/05/11 13:13:26;;;;;;;;;;;27.80;69.10;;;;;;5086815;28;19931;-82
2022/05/11 13:15:54;;;;;;;;;;;27.70;69.30;;;;;;5074918;28;19924;-82
2022/05/11 13:18:24;;;;;;;;;;;27.80;69.60;;;;;;5072709;28;20015;-81
2022/05/11 13:20:52;;;;;;;;;;;27.80;69.60;;;;;;5077740;28;19924;-82
2022/05/11 13:23:31;;;;;;;;;;;27.80;69.50;;;;;;5072234;28;20397;-83
2022/05/11 13:25:59;;;;;;;;;;;27.90;70.50;;;;;;5076364;28;19927;-81
2022/05/11 13:28:29;;;;;;;;;;;28.00;70.00;;;;;;5068133;28;19924;-82
2022/05/11 13:30:56;;;;;;;;;;;28.30;70.30;;;;;;5076584;28;19936;-82
2022/05/11 13:33:29;;;;;;;;;;;28.50;70.10;;;;;;5075110;28;19925;-84
2022/05/11 13:36:11;;;;;;;;;;;28.70;69.70;;;;;;5075673;28;19929;-84
2022/05/11 13:38:38;;;;;;;;;;;28.90;69.40;;;;;;5074362;28;19931;-82
2022/05/11 13:41:05;;;;;;;;;;;28.90;68.20;;;;;;5082873;28;20006;-84
2022/05/11 13:43:35;;;;;;;;;;;28.90;68.20;;;;;;5084242;28;20063;-82
2022/05/11 13:46:03;;;;;;;;;;;28.80;68.50;;;;;;5084260;28;20243;-82
2022/05/11 13:48:32;;;;;;;;;;;28.90;68.60;;;;;;5076653;28;20368;-81
2022/05/11 13:51:07;;;;;;;;;;;28.90;68.90;;;;;;5083638;28;19928;-83
2022/05/11 13:53:34;;;;;;;;;;;28.90;68.00;;;;;;5083411;28;19935;-83
2022/05/11 13:56:08;;;;;;;;;;;29.00;68.50;;;;;;5071383;28;20344;-81
2022/05/11 13:58:38;;;;;;;;;;;29.00;67.60;;;;;;5075959;28;20151;-82
2022/05/11 14:01:05;;;;;;;;;;;29.00;68.50;;;;;;5078116;28;20258;-84
2022/05/11 14:03:34;;;;;;;;;;;29.10;68.20;;;;;;5078166;28;19924;-82
2022/05/11 14:06:04;;;;;;;;;;;29.20;69.00;;;;;;5077550;28;19988;-83
2022/05/11 14:08:30;;;;;;;;;;;29.30;68.30;;;;;;5076188;28;20304;-82
2022/05/11 14:10:57;;;;;;;;;;;29.30;68.10;;;;;;5075957;28;19920;-82
2022/05/11 14:13:24;;;;;;;;;;;29.30;67.80;;;;;;5074112;28;19935;-84
2022/05/11 14:15:52;;;;;;;;;;;29.40;68.20;;;;;;5074596;28;19935;-81
2022/05/11 14:18:20;;;;;;;;;;;29.30;67.90;;;;;;5077420;28;19928;-84
2022/05/11 14:20:47;;;;;;;;;;;29.20;66.80;;;;;;5081178;28;19971;-85
2022/05/11 14:23:14;;;;;;;;;;;28.90;66.00;;;;;;5084432;28;19921;-81
2022/05/11 14:25:41;;;;;;;;;;;28.50;66.70;;;;;;5084944;28;19920;-81
2022/05/11 14:28:09;;;;;;;;;;;28.50;67.30;;;;;;5078564;28;19971;-80
2022/05/11 14:30:36;;;;;;;;;;;28.50;67.90;;;;;;5078210;28;20495;-83
2022/05/11 14:33:04;;;;;;;;;;;28.20;66.80;;;;;;5085790;28;19920;-82
2022/05/11 14:35:31;;;;;;;;;;;28.50;67.40;;;;;;5092480;28;19946;-83
2022/05/11 14:37:58;;;;;;;;;;;28.50;67.30;;;;;;5082389;28;20385;-80
2022/05/11 14:40:27;;;;;;;;;;;28.50;67.50;;;;;;5079036;28;19931;-81
2022/05/11 14:42:53;;;;;;;;;;;28.40;67.70;;;;;;5076666;28;20490;-82
2022/05/11 14:45:20;;;;;;;;;;;28.50;67.30;;;;;;5077518;28;19994;-83
2022/05/11 14:47:49;;;;;;;;;;;28.50;67.10;;;;;;5073946;28;19924;-84
2022/05/11 14:50:20;;;;;;;;;;;28.60;67.30;;;;;;5081588;28;19935;-83
2022/05/11 14:52:47;;;;;;;;;;;28.70;66.50;;;;;;5073554;28;19924;-80
2022/05/11 14:55:14;;;;;;;;;;;28.70;66.60;;;;;;5074960;28;19920;-84
2022/05/11 15:03:11;;;;;;;;;;;28.40;65.50;;;;;;5075855;28;19942;-81
2022/05/11 15:05:40;;;;;;;;;;;28.40;66.20;;;;;;5071083;28;20120;-82
2022/05/11 15:08:07;;;;;;;;;;;28.30;65.80;;;;;;5073622;28;19931;-82
2022/05/11 15:10:33;;;;;;;;;;;28.30;66.80;;;;;;5074149;28;19955;-82
2022/05/11 15:15:45;;;;;;;;;;;28.40;66.60;;;;;;5077731;28;19927;-82
2022/05/11 15:18:13;;;;;;;;;;;28.50;66.20;;;;;;5084375;28;20191;-81